»·PEaware :: BOE561 KPDX-KSFO

BOE561 :: KPDX-KSFO

FLIGHT INFORMATION

Flight Status: Arrived
Operator:
Boeing Commercial Airplane Group
More flights by this operator :: More flights under this callsign
Pilot: Ben F. (2808)
Aircraft: BOEING 737-200
(B732)
More flights by this aircraft type
Origin: KPDX Portland Intl
United States
Destination: KSFO San Francisco Intl
United States
More flights between these airports :: More routes between these airports
Route: +PTLD1 EUG J143 RBG GOLDN7
File this flight plan on PilotEdge
Remarks:
Altitude:
(Current/Filed)
31,000ft
Speed:
(Current/Filed)
437kts
Departed: 22-Sep-18 04:31 PM
Arrived: 22-Sep-18 06:00 PM
Distance/Time
Traveled:
478nm/1:29
Distance/Time
To Go:
Arrived

Flight Plot

Page will automatically refresh every two minutes.

Flight plan parsing failed; only flown route is shown


Map Options




Map Legend


Flown Route
Filed Route
Departure Airport
Arrival Airport
Navaid (VOR, NDB)
Fix

Horizontal Profiles

Position Reports

Time Latitude Longitude Heading Altitude Ground
Speed
22-Sep-18 16:21 45.587872 -122.584503 210 38ft 0kts
22-Sep-18 16:22 45.587872 -122.584503 210 38ft 0kts
22-Sep-18 16:23 45.587872 -122.584503 210 38ft 0kts
22-Sep-18 16:24 45.587872 -122.584503 210 38ft 0kts
22-Sep-18 16:25 45.587872 -122.584503 209 38ft 0kts
22-Sep-18 16:26 45.587871 -122.584503 210 38ft 0kts
22-Sep-18 16:27 45.587649 -122.584404 132 38ft 4kts
22-Sep-18 16:28 45.587502 -122.583267 72 38ft 0kts
22-Sep-18 16:29 45.587480 -122.580068 118 38ft 19kts
22-Sep-18 16:30 45.584512 -122.572413 117 38ft 23kts
22-Sep-18 16:31 45.582729 -122.567363 68 38ft 0kts
22-Sep-18 16:32 45.583967 -122.567812 298 38ft 13kts
22-Sep-18 16:33 45.602822 -122.611893 299 1453ft 178kts
22-Sep-18 16:34 45.629550 -122.675311 298 3947ft 204kts
22-Sep-18 16:35 45.660975 -122.749010 297 6552ft 239kts
22-Sep-18 16:36 45.680487 -122.841140 242 8786ft 273kts
22-Sep-18 16:37 45.616732 -122.896950 225 10961ft 303kts
22-Sep-18 16:38 45.533798 -122.933996 194 13192ft 327kts
22-Sep-18 16:39 45.443413 -122.954686 191 15299ft 338kts
22-Sep-18 16:40 45.350010 -122.973859 192 17093ft 347kts
22-Sep-18 16:41 45.254708 -122.993503 192 18648ft 355kts
22-Sep-18 16:42 45.156636 -123.013663 192 20011ft 363kts
22-Sep-18 16:43 45.060610 -123.033295 193 21232ft 368kts
22-Sep-18 16:44 44.962211 -123.053344 194 22490ft 367kts
22-Sep-18 16:45 44.863007 -123.073551 194 23469ft 371kts
22-Sep-18 16:46 44.761914 -123.094017 195 24428ft 375kts
22-Sep-18 16:47 44.659220 -123.114743 195 25290ft 377kts
22-Sep-18 16:48 44.555100 -123.135679 195 26012ft 381kts
22-Sep-18 16:49 44.450550 -123.156618 195 26652ft 384kts
22-Sep-18 16:50 44.345267 -123.177623 195 27207ft 386kts
22-Sep-18 16:51 44.239870 -123.198571 195 27713ft 387kts
22-Sep-18 16:52 44.134695 -123.219395 195 28132ft 389kts
22-Sep-18 16:53 44.027952 -123.234967 193 28616ft 390kts
22-Sep-18 16:54 43.921707 -123.249625 194 29132ft 390kts
22-Sep-18 16:55 43.817516 -123.263923 194 29685ft 389kts
22-Sep-18 16:56 43.711902 -123.278391 194 30075ft 392kts
22-Sep-18 16:57 43.609241 -123.292357 194 30639ft 388kts
22-Sep-18 16:58 43.502861 -123.306842 194 31098ft 387kts
22-Sep-18 16:59 43.394863 -123.321494 194 31098ft 396kts
22-Sep-18 17:00 43.285079 -123.336302 194 31096ft 403kts
22-Sep-18 17:01 43.173052 -123.348973 189 31095ft 414kts
22-Sep-18 17:02 43.058470 -123.347839 188 31093ft 419kts
22-Sep-18 17:03 42.942222 -123.345684 187 31106ft 422kts
22-Sep-18 17:04 42.828195 -123.343406 186 31126ft 421kts
22-Sep-18 17:05 42.712361 -123.341104 187 31125ft 419kts
22-Sep-18 17:06 42.596694 -123.338977 187 31125ft 417kts
22-Sep-18 17:07 42.481765 -123.337081 187 31122ft 416kts
22-Sep-18 17:08 42.366246 -123.335208 187 31118ft 418kts
22-Sep-18 17:09 42.250107 -123.333193 187 31116ft 420kts
22-Sep-18 17:10 42.135571 -123.331054 187 31114ft 421kts
22-Sep-18 17:11 42.018912 -123.328862 187 31099ft 422kts
22-Sep-18 17:12 41.902359 -123.326685 186 31065ft 423kts
22-Sep-18 17:13 41.791622 -123.324616 186 31067ft 424kts
22-Sep-18 17:14 41.675134 -123.322450 186 31044ft 425kts
22-Sep-18 17:15 41.558201 -123.320287 186 31021ft 426kts
22-Sep-18 17:16 41.440661 -123.318112 186 31039ft 426kts
22-Sep-18 17:17 41.322902 -123.315958 186 30972ft 427kts
22-Sep-18 17:18 41.204447 -123.313782 186 30922ft 428kts
22-Sep-18 17:19 41.088040 -123.311674 186 30903ft 427kts
22-Sep-18 17:20 40.969928 -123.309569 185 30904ft 428kts
22-Sep-18 17:21 40.856435 -123.307465 185 30912ft 430kts
22-Sep-18 17:22 40.739689 -123.305337 185 30911ft 432kts
22-Sep-18 17:23 40.620671 -123.303145 185 30910ft 433kts
22-Sep-18 17:24 40.501430 -123.300950 185 30909ft 434kts
22-Sep-18 17:25 40.381419 -123.298748 185 30908ft 435kts
22-Sep-18 17:26 40.261858 -123.296559 185 30949ft 434kts
22-Sep-18 17:27 40.142137 -123.294377 185 31062ft 433kts
22-Sep-18 17:28 40.022398 -123.292210 185 31062ft 434kts
22-Sep-18 17:29 39.902032 -123.290037 185 31009ft 436kts
22-Sep-18 17:30 39.786501 -123.287949 185 30965ft 437kts
22-Sep-18 17:31 39.666790 -123.285790 185 30963ft 436kts
22-Sep-18 17:32 39.547054 -123.283645 185 30963ft 433kts
22-Sep-18 17:33 39.427930 -123.281520 185 30962ft 430kts
22-Sep-18 17:34 39.309757 -123.279421 185 30961ft 428kts
22-Sep-18 17:35 39.191822 -123.277332 185 30961ft 427kts
22-Sep-18 17:36 39.075776 -123.275259 184 29208ft 417kts
22-Sep-18 17:37 38.965482 -123.237326 167 26769ft 415kts
22-Sep-18 17:38 38.863880 -123.194893 166 24764ft 403kts
22-Sep-18 17:39 38.760539 -123.151383 165 22781ft 389kts
22-Sep-18 17:40 38.659634 -123.109042 165 20813ft 378kts
22-Sep-18 17:41 38.561382 -123.067935 164 18935ft 368kts
22-Sep-18 17:42 38.465997 -123.028139 164 17159ft 358kts
22-Sep-18 17:43 38.373044 -122.989449 163 15624ft 350kts
22-Sep-18 17:44 38.282264 -122.951761 163 14158ft 336kts
22-Sep-18 17:45 38.196449 -122.916249 163 12643ft 314kts
22-Sep-18 17:46 38.116936 -122.883407 163 11333ft 295kts
22-Sep-18 17:47 38.047069 -122.831133 141 10949ft 294kts
22-Sep-18 17:48 37.985176 -122.765341 140 10960ft 296kts
22-Sep-18 17:49 37.921114 -122.696291 140 10964ft 304kts
22-Sep-18 17:50 37.860671 -122.631155 140 10987ft 280kts
22-Sep-18 17:51 37.801164 -122.567211 140 11009ft 282kts
22-Sep-18 17:52 37.742538 -122.501890 125 9490ft 285kts
22-Sep-18 17:53 37.713771 -122.409573 110 8022ft 280kts
22-Sep-18 17:54 37.688684 -122.322170 111 7083ft 262kts
22-Sep-18 17:55 37.662710 -122.238599 116 5484ft 254kts
22-Sep-18 17:56 37.632140 -122.160262 134 3901ft 248kts
22-Sep-18 17:57 37.576383 -122.167895 232 2968ft 208kts
22-Sep-18 17:58 37.561331 -122.232556 298 2450ft 206kts
22-Sep-18 17:59 37.586267 -122.292342 297 1364ft 190kts
22-Sep-18 18:00 37.607119 -122.341769 297 327ft 124kts
22-Sep-18 18:01 37.618856 -122.369864 298 22ft 69kts
22-Sep-18 18:02 37.623260 -122.376633 297 22ft 15kts
22-Sep-18 18:03 37.625134 -122.381145 298 22ft 17kts
22-Sep-18 18:04 37.627458 -122.384929 16 22ft 4kts
22-Sep-18 18:05 37.627764 -122.384577 61 22ft 0kts
22-Sep-18 18:06 37.627764 -122.384577 61 22ft 0kts
22-Sep-18 18:07 37.627764 -122.384577 61 22ft 0kts
22-Sep-18 18:08 37.627764 -122.384577 61 22ft 0kts
22-Sep-18 18:09 37.627764 -122.384577 61 22ft 0kts

Navigation Log

Ident Type
Flight plan parsing failed, navigation log unavailable